Time;durP1;ratioP1;P1;durP2;ratioP2;P2;SDS_P1;SDS_P2;PMS_P1;PMS_P2;Temp;Humidity;BMP_temperature;BMP_pressure;BME280_temperature;BME280_humidity;BME280_pressure;Samples;Min_cycle;Max_cycle;Signal;HPM_P1;HPM_P2
2021/07/25 00:02:10;;;;;;;;;2.50;1.00;;;;;;;;5039645;28;46972;-78
2021/07/25 00:04:35;;;;;;;;;1.75;1.75;;;;;;;;5058208;28;46900;-78
2021/07/25 00:07:00;;;;;;;;;1.50;1.50;;;;;;;;5058096;28;46995;-78
2021/07/25 00:09:26;;;;;;;;;3.00;3.00;;;;;;;;5058054;28;46851;-78
2021/07/25 00:11:51;;;;;;;;;2.00;2.00;;;;;;;;5013044;28;1278229;-78
2021/07/25 00:14:16;;;;;;;;;2.00;2.00;;;;;;;;5059307;28;47152;-78
2021/07/25 00:16:43;;;;;;;;;6.00;3.50;;;;;;;;5058791;28;48343;-78
2021/07/25 00:19:12;;;;;;;;;1.75;1.00;;;;;;;;5059084;28;46943;-78
2021/07/25 00:21:37;;;;;;;;;1.50;1.50;;;;;;;;5066865;28;46964;-78
2021/07/25 00:24:02;;;;;;;;;3.75;2.25;;;;;;;;5040917;28;46696;-78
2021/07/25 00:26:37;;;;;;;;;1.75;1.75;;;;;;;;5058639;28;47708;-78
2021/07/25 00:29:02;;;;;;;;;2.00;2.00;;;;;;;;5058832;28;46970;-78
2021/07/25 00:31:29;;;;;;;;;4.00;3.00;;;;;;;;5058586;28;46884;-78
2021/07/25 00:33:55;;;;;;;;;1.50;1.50;;;;;;;;5052204;28;47105;-78
2021/07/25 00:36:20;;;;;;;;;2.00;2.00;;;;;;;;5060988;28;48131;-78
2021/07/25 00:38:45;;;;;;;;;3.00;2.00;;;;;;;;5040637;28;46917;-78
2021/07/25 00:41:14;;;;;;;;;3.00;2.00;;;;;;;;5057891;28;46920;-77
2021/07/25 00:43:40;;;;;;;;;4.00;2.00;;;;;;;;5058743;28;47005;-78
2021/07/25 00:46:05;;;;;;;;;3.75;3.00;;;;;;;;5058041;28;46916;-78
2021/07/25 00:48:31;;;;;;;;;2.75;2.50;;;;;;;;5058687;28;46823;-80
2021/07/25 00:50:57;;;;;;;;;3.00;1.50;;;;;;;;5058573;28;46798;-79
2021/07/25 00:53:23;;;;;;;;;2.00;2.00;;;;;;;;5058745;28;47159;-79
2021/07/25 00:55:48;;;;;;;;;2.00;2.00;;;;;;;;5040131;28;48310;-78
2021/07/25 00:58:14;;;;;;;;;1.50;1.50;;;;;;;;5040203;28;46885;-78
2021/07/25 01:00:39;;;;;;;;;4.00;2.00;;;;;;;;5058066;28;46818;-78
2021/07/25 01:03:23;;;;;;;;;2.00;1.00;;;;;;;;5058460;28;47039;-78
2021/07/25 01:06:01;;;;;;;;;2.00;2.00;;;;;;;;5065570;28;47867;-78
2021/07/25 01:08:35;;;;;;;;;3.25;2.00;;;;;;;;5078484;28;47068;-78
2021/07/25 01:11:02;;;;;;;;;1.00;1.00;;;;;;;;5078570;28;46956;-78
2021/07/25 01:13:30;;;;;;;;;4.50;1.50;;;;;;;;5078289;28;47050;-78
2021/07/25 01:15:56;;;;;;;;;2.00;1.50;;;;;;;;5078313;28;47996;-78
2021/07/25 01:18:22;;;;;;;;;2.00;2.00;;;;;;;;5078292;28;46790;-78
2021/07/25 01:20:47;;;;;;;;;2.00;2.00;;;;;;;;5078366;28;47094;-78
2021/07/25 01:23:12;;;;;;;;;1.50;1.50;;;;;;;;5061690;28;47039;-78
2021/07/25 01:25:40;;;;;;;;;2.00;2.00;;;;;;;;5057773;28;47618;-78
2021/07/25 01:28:07;;;;;;;;;1.75;1.75;;;;;;;;5057777;28;47017;-78
2021/07/25 01:30:35;;;;;;;;;2.00;2.00;;;;;;;;5057853;28;46984;-78
2021/07/25 01:33:07;;;;;;;;;2.25;1.25;;;;;;;;5061683;28;46807;-78
2021/07/25 01:35:33;;;;;;;;;1.00;1.00;;;;;;;;5066966;28;47940;-78
2021/07/25 01:37:59;;;;;;;;;2.25;1.50;;;;;;;;5057784;28;47123;-77
2021/07/25 01:40:25;;;;;;;;;0.00;0.00;;;;;;;;5058110;28;46915;-77
2021/07/25 01:42:54;;;;;;;;;1.75;1.75;;;;;;;;5039531;28;46841;-77
2021/07/25 01:45:19;;;;;;;;;1.75;1.75;;;;;;;;5057378;28;46833;-77
2021/07/25 01:47:44;;;;;;;;;1.50;1.50;;;;;;;;5057606;28;47004;-78
2021/07/25 01:50:10;;;;;;;;;2.75;2.00;;;;;;;;5057684;28;47103;-78
2021/07/25 01:52:35;;;;;;;;;2.00;2.00;;;;;;;;5057492;28;47287;-78
2021/07/25 01:55:01;;;;;;;;;2.25;1.50;;;;;;;;5057480;28;47820;-78
2021/07/25 01:57:26;;;;;;;;;3.00;2.00;;;;;;;;5057270;28;46958;-78
2021/07/25 01:59:52;;;;;;;;;3.00;1.00;;;;;;;;5057809;28;46893;-78
2021/07/25 02:02:17;;;;;;;;;2.75;2.75;;;;;;;;5057426;28;46902;-78
2021/07/25 02:04:43;;;;;;;;;3.00;2.00;;;;;;;;5057351;28;47051;-77
2021/07/25 02:07:08;;;;;;;;;1.75;1.25;;;;;;;;5057526;28;47108;-77
2021/07/25 02:09:34;;;;;;;;;2.00;2.00;;;;;;;;5039422;28;46905;-78
2021/07/25 02:11:59;;;;;;;;;1.00;1.00;;;;;;;;5057352;28;46922;-77
2021/07/25 02:14:25;;;;;;;;;3.00;1.00;;;;;;;;5057139;28;47817;-77
2021/07/25 02:16:50;;;;;;;;;3.00;3.00;;;;;;;;5057075;28;46753;-77
2021/07/25 02:19:15;;;;;;;;;2.00;2.00;;;;;;;;5057454;28;47071;-78
2021/07/25 02:21:40;;;;;;;;;1.75;1.75;;;;;;;;5065664;28;47030;-78
2021/07/25 02:24:06;;;;;;;;;2.75;2.00;;;;;;;;5057232;28;46798;-78
2021/07/25 02:26:31;;;;;;;;;2.00;1.75;;;;;;;;5057108;28;46890;-77
2021/07/25 02:28:57;;;;;;;;;2.00;2.00;;;;;;;;5057235;28;46806;-77
2021/07/25 02:31:22;;;;;;;;;2.00;2.00;;;;;;;;5057051;28;47051;-77
2021/07/25 02:33:47;;;;;;;;;2.75;2.75;;;;;;;;5049055;28;49424;-77
2021/07/25 02:36:12;;;;;;;;;2.50;2.00;;;;;;;;5060435;28;46817;-77
2021/07/25 02:38:38;;;;;;;;;3.75;2.75;;;;;;;;5057404;28;47022;-77
2021/07/25 02:41:03;;;;;;;;;2.75;2.75;;;;;;;;5057131;28;47071;-77
2021/07/25 02:43:28;;;;;;;;;3.00;3.00;;;;;;;;5056993;28;46791;-77
2021/07/25 02:45:54;;;;;;;;;2.00;2.00;;;;;;;;5056662;28;46896;-77
2021/07/25 02:48:19;;;;;;;;;2.00;2.00;;;;;;;;5057096;28;46884;-77
2021/07/25 02:50:44;;;;;;;;;2.00;2.00;;;;;;;;5057239;28;47020;-77
2021/07/25 02:53:10;;;;;;;;;7.25;3.50;;;;;;;;5056886;28;47163;-77
2021/07/25 02:55:35;;;;;;;;;3.75;2.50;;;;;;;;5056928;28;47113;-77
2021/07/25 02:58:00;;;;;;;;;3.00;2.50;;;;;;;;5057029;28;46885;-78
2021/07/25 03:00:25;;;;;;;;;2.00;2.00;;;;;;;;5038454;28;47132;-78
2021/07/25 03:02:51;;;;;;;;;3.00;3.00;;;;;;;;5056765;28;47789;-79
2021/07/25 03:05:16;;;;;;;;;3.50;2.00;;;;;;;;5059530;28;47008;-78
2021/07/25 03:07:41;;;;;;;;;2.00;2.00;;;;;;;;5042276;28;46951;-78
2021/07/25 03:10:08;;;;;;;;;3.00;3.00;;;;;;;;5060583;28;46952;-78
2021/07/25 03:12:33;;;;;;;;;2.00;2.00;;;;;;;;5059913;28;47201;-77
2021/07/25 03:14:59;;;;;;;;;1.50;1.50;;;;;;;;5059640;28;46864;-77
2021/07/25 03:17:24;;;;;;;;;4.00;3.00;;;;;;;;5041793;28;46917;-77
2021/07/25 03:19:50;;;;;;;;;3.00;3.00;;;;;;;;5060078;28;47214;-77
2021/07/25 03:22:15;;;;;;;;;3.00;3.00;;;;;;;;5067606;28;46769;-77
2021/07/25 03:24:40;;;;;;;;;2.00;2.00;;;;;;;;5059649;28;47154;-77
2021/07/25 03:27:06;;;;;;;;;4.00;2.00;;;;;;;;5060029;28;46807;-77
2021/07/25 03:29:31;;;;;;;;;3.50;2.00;;;;;;;;5060097;28;46755;-77
2021/07/25 03:31:56;;;;;;;;;5.25;3.00;;;;;;;;5059637;28;46869;-76
2021/07/25 03:34:22;;;;;;;;;3.75;3.25;;;;;;;;5073412;27;46696;-76
2021/07/25 03:36:47;;;;;;;;;3.00;3.00;;;;;;;;5060396;28;46969;-77
2021/07/25 03:39:14;;;;;;;;;4.25;3.75;;;;;;;;5060231;28;46893;-77
2021/07/25 03:41:39;;;;;;;;;2.00;2.00;;;;;;;;5059869;28;47100;-76
2021/07/25 03:44:05;;;;;;;;;2.75;2.75;;;;;;;;5059668;28;46933;-76
2021/07/25 03:46:31;;;;;;;;;3.00;2.25;;;;;;;;5059571;28;47015;-76
2021/07/25 03:48:56;;;;;;;;;4.00;3.00;;;;;;;;5059896;28;47027;-76
2021/07/25 03:51:22;;;;;;;;;4.00;3.00;;;;;;;;5059709;28;48282;-76
2021/07/25 03:53:47;;;;;;;;;2.25;2.00;;;;;;;;5059531;28;47114;-76
2021/07/25 03:56:12;;;;;;;;;2.50;2.50;;;;;;;;5059663;28;46988;-76
2021/07/25 03:58:37;;;;;;;;;2.75;1.00;;;;;;;;5059447;28;47111;-76
2021/07/25 04:01:03;;;;;;;;;3.00;3.00;;;;;;;;5059352;28;47020;-76
2021/07/25 04:03:28;;;;;;;;;3.50;3.50;;;;;;;;5059430;28;46967;-76
2021/07/25 04:05:53;;;;;;;;;5.00;3.25;;;;;;;;5041176;28;47021;-76
2021/07/25 04:08:19;;;;;;;;;3.75;3.00;;;;;;;;5059759;28;47031;-76
2021/07/25 04:10:44;;;;;;;;;2.25;2.00;;;;;;;;5059172;28;46865;-76
2021/07/25 04:13:11;;;;;;;;;3.00;3.00;;;;;;;;5058874;28;46893;-77
2021/07/25 04:15:40;;;;;;;;;2.00;1.00;;;;;;;;5057874;28;46911;-76
2021/07/25 04:18:05;;;;;;;;;5.75;3.00;;;;;;;;5059282;28;47042;-76
2021/07/25 04:20:30;;;;;;;;;4.00;3.25;;;;;;;;5060873;28;47210;-77
2021/07/25 04:22:56;;;;;;;;;3.25;3.25;;;;;;;;5066018;28;46897;-76
2021/07/25 04:25:21;;;;;;;;;4.00;3.75;;;;;;;;5059010;28;46968;-76
2021/07/25 04:27:47;;;;;;;;;2.25;2.00;;;;;;;;5059241;28;46968;-76
2021/07/25 04:30:12;;;;;;;;;3.00;2.25;;;;;;;;5058732;28;47146;-76
2021/07/25 04:32:38;;;;;;;;;4.00;4.00;;;;;;;;5059390;27;47030;-76
2021/07/25 04:35:03;;;;;;;;;1.25;1.25;;;;;;;;5071849;28;46943;-76
2021/07/25 04:37:30;;;;;;;;;4.00;2.75;;;;;;;;5059194;28;47117;-77
2021/07/25 04:39:56;;;;;;;;;3.75;2.75;;;;;;;;5058904;28;46930;-76
2021/07/25 04:42:23;;;;;;;;;2.00;2.00;;;;;;;;5058750;28;46906;-76
2021/07/25 04:45:05;;;;;;;;;2.00;2.00;;;;;;;;5058805;28;46740;-76
2021/07/25 04:47:35;;;;;;;;;3.75;3.00;;;;;;;;5059037;28;46985;-76
2021/07/25 04:50:08;;;;;;;;;2.25;2.00;;;;;;;;5058768;28;48154;-76
2021/07/25 04:52:43;;;;;;;;;3.75;3.00;;;;;;;;5058669;28;47059;-76
2021/07/25 04:55:10;;;;;;;;;3.00;3.00;;;;;;;;5059122;28;46817;-76
2021/07/25 04:57:37;;;;;;;;;3.25;3.00;;;;;;;;5058171;28;46996;-76
2021/07/25 05:00:03;;;;;;;;;2.25;2.25;;;;;;;;5040120;28;47115;-76
2021/07/25 05:02:30;;;;;;;;;2.25;1.25;;;;;;;;5058464;28;47036;-76
2021/07/25 05:04:55;;;;;;;;;3.00;2.00;;;;;;;;5058453;28;47051;-76
2021/07/25 05:07:20;;;;;;;;;2.50;2.50;;;;;;;;5058816;28;46808;-76
2021/07/25 05:09:46;;;;;;;;;2.00;2.00;;;;;;;;5058457;28;46855;-76
2021/07/25 05:12:32;;;;;;;;;2.75;2.75;;;;;;;;5039883;28;46896;-76
2021/07/25 05:14:57;;;;;;;;;2.75;2.00;;;;;;;;5058121;28;46813;-76
2021/07/25 05:17:35;;;;;;;;;3.50;3.00;;;;;;;;5058596;28;47207;-77
2021/07/25 05:20:04;;;;;;;;;2.25;2.25;;;;;;;;5058263;28;47184;-76
2021/07/25 05:22:56;;;;;;;;;2.50;2.00;;;;;;;;5064468;28;47163;-76
2021/07/25 05:25:23;;;;;;;;;2.25;2.25;;;;;;;;5064429;28;47297;-76
2021/07/25 05:27:49;;;;;;;;;2.00;2.00;;;;;;;;5077846;28;47457;-76
2021/07/25 05:30:16;;;;;;;;;3.00;2.00;;;;;;;;5078211;28;47907;-76
2021/07/25 05:32:41;;;;;;;;;2.50;2.50;;;;;;;;5078117;27;46936;-77
2021/07/25 05:35:07;;;;;;;;;3.00;3.00;;;;;;;;5052226;28;46892;-76
2021/07/25 05:37:33;;;;;;;;;3.00;1.50;;;;;;;;5058295;28;47348;-76
2021/07/25 05:39:58;;;;;;;;;2.50;2.50;;;;;;;;5058123;28;46821;-76
2021/07/25 05:42:24;;;;;;;;;2.00;2.00;;;;;;;;5057776;28;46869;-76
2021/07/25 05:44:49;;;;;;;;;2.50;2.50;;;;;;;;5057731;28;46921;-76
2021/07/25 05:47:14;;;;;;;;;2.75;2.25;;;;;;;;5058113;28;47202;-76
2021/07/25 05:49:40;;;;;;;;;2.75;2.00;;;;;;;;5057875;28;46786;-76
2021/07/25 05:52:05;;;;;;;;;2.00;2.00;;;;;;;;5057799;28;47031;-76
2021/07/25 05:54:30;;;;;;;;;3.00;2.75;;;;;;;;5057771;28;47040;-76
2021/07/25 05:56:56;;;;;;;;;2.00;2.00;;;;;;;;5058258;28;46925;-76
2021/07/25 05:59:21;;;;;;;;;3.25;1.75;;;;;;;;5057598;28;46982;-76
2021/07/25 06:01:46;;;;;;;;;2.00;2.00;;;;;;;;5057532;28;47118;-76
2021/07/25 06:04:12;;;;;;;;;3.00;2.00;;;;;;;;5057773;28;47013;-76
2021/07/25 06:06:37;;;;;;;;;2.75;2.75;;;;;;;;5057834;28;47222;-77
2021/07/25 06:09:03;;;;;;;;;5.00;4.00;;;;;;;;5057467;28;46988;-77
2021/07/25 06:11:29;;;;;;;;;2.75;2.00;;;;;;;;5057551;28;46871;-77
2021/07/25 06:13:54;;;;;;;;;4.25;3.00;;;;;;;;5057637;28;46956;-76
2021/07/25 06:16:20;;;;;;;;;3.50;3.00;;;;;;;;5057710;28;47267;-76
2021/07/25 06:18:45;;;;;;;;;3.50;3.00;;;;;;;;5057402;28;47566;-76
2021/07/25 06:21:11;;;;;;;;;3.75;3.75;;;;;;;;5064428;28;46949;-77
2021/07/25 06:23:36;;;;;;;;;3.00;3.00;;;;;;;;5039998;28;46948;-76
2021/07/25 06:26:02;;;;;;;;;3.00;3.00;;;;;;;;5057668;28;46923;-77
2021/07/25 06:28:27;;;;;;;;;4.00;4.00;;;;;;;;5039073;28;49345;-77
2021/07/25 06:30:52;;;;;;;;;3.00;3.00;;;;;;;;5057189;28;46868;-77
2021/07/25 06:33:18;;;;;;;;;2.00;2.00;;;;;;;;5045053;28;46976;-77
2021/07/25 06:35:43;;;;;;;;;4.50;3.75;;;;;;;;5064793;28;46761;-77
2021/07/25 06:38:15;;;;;;;;;4.00;3.50;;;;;;;;5057126;28;47814;-77
2021/07/25 06:40:42;;;;;;;;;1.50;1.50;;;;;;;;5060834;28;46923;-77
2021/07/25 06:43:07;;;;;;;;;4.50;4.25;;;;;;;;5060921;28;46753;-77
2021/07/25 06:45:33;;;;;;;;;4.00;3.50;;;;;;;;5060547;28;46805;-77
2021/07/25 06:47:58;;;;;;;;;4.50;3.00;;;;;;;;5060853;28;47764;-77
2021/07/25 06:50:25;;;;;;;;;4.00;3.00;;;;;;;;5060644;28;46890;-77
2021/07/25 06:52:51;;;;;;;;;2.50;2.00;;;;;;;;5060783;28;46968;-77
2021/07/25 06:55:17;;;;;;;;;3.00;3.00;;;;;;;;5042480;28;46909;-77
2021/07/25 06:57:43;;;;;;;;;6.25;4.25;;;;;;;;5060350;28;47035;-77
2021/07/25 07:00:08;;;;;;;;;3.50;3.50;;;;;;;;5041953;28;47000;-77
2021/07/25 07:02:50;;;;;;;;;5.00;4.00;;;;;;;;5060830;28;46908;-77
2021/07/25 07:05:16;;;;;;;;;3.00;3.00;;;;;;;;5060459;28;46924;-77
2021/07/25 07:07:42;;;;;;;;;3.25;3.00;;;;;;;;5060569;28;47009;-77
2021/07/25 07:10:07;;;;;;;;;3.00;3.00;;;;;;;;5060316;28;47028;-77
2021/07/25 07:12:34;;;;;;;;;5.75;3.00;;;;;;;;5060373;28;46916;-77
2021/07/25 07:14:59;;;;;;;;;5.00;5.00;;;;;;;;5060189;28;47166;-78
2021/07/25 07:17:24;;;;;;;;;3.25;3.25;;;;;;;;5060372;28;47965;-78
2021/07/25 07:19:49;;;;;;;;;5.25;5.25;;;;;;;;5060048;28;47038;-79
2021/07/25 07:22:25;;;;;;;;;5.25;5.25;;;;;;;;5048236;28;46955;-78
2021/07/25 07:24:50;;;;;;;;;7.00;5.50;;;;;;;;5060120;28;46996;-78
2021/07/25 07:27:15;;;;;;;;;4.75;4.75;;;;;;;;5041660;28;48582;-79
2021/07/25 07:29:41;;;;;;;;;5.00;4.75;;;;;;;;5059602;28;46724;-79
2021/07/25 07:32:07;;;;;;;;;4.00;4.00;;;;;;;;5059856;28;47159;-79
2021/07/25 07:34:32;;;;;;;;;5.25;4.25;;;;;;;;5073518;27;46951;-78
2021/07/25 07:36:58;;;;;;;;;5.75;5.00;;;;;;;;5059726;28;46996;-78
2021/07/25 07:39:23;;;;;;;;;7.00;6.00;;;;;;;;5059701;28;46893;-78
2021/07/25 07:41:48;;;;;;;;;7.25;5.00;;;;;;;;5059913;28;47483;-78
2021/07/25 07:44:14;;;;;;;;;5.25;5.25;;;;;;;;5059738;28;47046;-79
2021/07/25 07:46:39;;;;;;;;;4.50;4.00;;;;;;;;5041049;28;48217;-79
2021/07/25 07:49:04;;;;;;;;;7.00;6.50;;;;;;;;5059452;28;46903;-79
2021/07/25 07:51:29;;;;;;;;;8.25;6.00;;;;;;;;5059452;28;46877;-79
2021/07/25 07:53:55;;;;;;;;;7.25;5.00;;;;;;;;5059786;28;46791;-79
2021/07/25 07:56:21;;;;;;;;;9.50;7.50;;;;;;;;5059464;28;47925;-79
2021/07/25 07:58:46;;;;;;;;;5.00;5.00;;;;;;;;5059266;28;46949;-79
2021/07/25 08:01:11;;;;;;;;;4.50;4.50;;;;;;;;5059265;28;46932;-79
2021/07/25 08:03:36;;;;;;;;;7.50;7.25;;;;;;;;5041344;28;46966;-79
2021/07/25 08:06:02;;;;;;;;;6.00;4.50;;;;;;;;5059369;28;47710;-79
2021/07/25 08:08:27;;;;;;;;;7.50;5.50;;;;;;;;5059264;28;46925;-79
2021/07/25 08:10:52;;;;;;;;;6.25;6.25;;;;;;;;5059278;28;46944;-79
2021/07/25 08:13:18;;;;;;;;;7.75;7.75;;;;;;;;5058855;28;47393;-78
2021/07/25 08:15:43;;;;;;;;;5.00;5.00;;;;;;;;5058874;28;46993;-78
2021/07/25 08:18:08;;;;;;;;;5.00;4.00;;;;;;;;5058892;28;47163;-78
2021/07/25 08:20:34;;;;;;;;;6.00;5.00;;;;;;;;5061116;28;47198;-78
2021/07/25 08:22:59;;;;;;;;;6.00;5.50;;;;;;;;5064446;28;46921;-78
2021/07/25 08:25:24;;;;;;;;;5.00;5.00;;;;;;;;5058876;28;47806;-78
2021/07/25 08:27:49;;;;;;;;;6.25;5.00;;;;;;;;5058842;28;46958;-78
2021/07/25 08:30:15;;;;;;;;;4.00;4.00;;;;;;;;5040403;28;47038;-78
2021/07/25 08:32:40;;;;;;;;;6.75;4.75;;;;;;;;5059977;27;46924;-78
2021/07/25 08:35:05;;;;;;;;;6.25;6.25;;;;;;;;5071292;28;46862;-78
2021/07/25 08:37:31;;;;;;;;;4.50;4.00;;;;;;;;5058864;28;46803;-78
2021/07/25 08:39:56;;;;;;;;;6.00;6.00;;;;;;;;5059136;28;47017;-78
2021/07/25 08:42:23;;;;;;;;;5.75;5.75;;;;;;;;5040678;28;46848;-77
2021/07/25 08:44:56;;;;;;;;;6.50;6.50;;;;;;;;5058420;28;47175;-77
2021/07/25 08:47:32;;;;;;;;;10.50;8.50;;;;;;;;5058525;28;46748;-77
2021/07/25 08:50:08;;;;;;;;;7.00;6.00;;;;;;;;5058825;28;46874;-77
2021/07/25 08:52:38;;;;;;;;;5.50;5.25;;;;;;;;5063566;28;47262;-78
2021/07/25 08:55:05;;;;;;;;;5.00;4.25;;;;;;;;5066615;28;48354;-78
2021/07/25 08:57:32;;;;;;;;;6.00;5.50;;;;;;;;5058099;28;47020;-78
2021/07/25 08:59:58;;;;;;;;;7.50;6.75;;;;;;;;5032490;28;46901;-78
2021/07/25 09:02:27;;;;;;;;;8.50;6.75;;;;;;;;5057657;28;47003;-77
2021/07/25 09:04:53;;;;;;;;;3.25;3.25;;;;;;;;5058426;28;47842;-78
2021/07/25 09:07:20;;;;;;;;;5.00;5.00;;;;;;;;5058309;28;47057;-77
2021/07/25 09:09:46;;;;;;;;;8.00;6.25;;;;;;;;5058566;28;46893;-77
2021/07/25 09:12:13;;;;;;;;;7.75;7.00;;;;;;;;5058163;28;46766;-77
2021/07/25 09:14:58;;;;;;;;;7.00;5.75;;;;;;;;5058023;28;46915;-77
2021/07/25 09:17:24;;;;;;;;;9.00;9.00;;;;;;;;5067183;28;46873;-77
2021/07/25 09:20:08;;;;;;;;;4.75;4.50;;;;;;;;5078480;28;46794;-77
2021/07/25 09:22:33;;;;;;;;;7.00;6.50;;;;;;;;5067380;28;47243;-77
2021/07/25 09:24:58;;;;;;;;;7.50;6.00;;;;;;;;5057994;28;47943;-77
2021/07/25 09:27:24;;;;;;;;;5.50;5.50;;;;;;;;5058060;28;46771;-77
2021/07/25 09:29:49;;;;;;;;;7.00;5.75;;;;;;;;5057948;28;46904;-78
2021/07/25 09:32:15;;;;;;;;;9.00;8.50;;;;;;;;5058373;28;46858;-78
2021/07/25 09:34:42;;;;;;;;;9.00;7.00;;;;;;;;5071753;27;47887;-79
2021/07/25 09:37:07;;;;;;;;;9.50;7.50;;;;;;;;5058271;28;46968;-79
2021/07/25 09:39:59;;;;;;;;;5.50;5.00;;;;;;;;5058103;28;47156;-79
2021/07/25 09:42:31;;;;;;;;;9.50;7.50;;;;;;;;5055694;28;46984;-79
2021/07/25 09:44:58;;;;;;;;;4.75;4.50;;;;;;;;5057602;28;47005;-79
2021/07/25 09:47:34;;;;;;;;;8.00;7.00;;;;;;;;5057894;28;46794;-79
2021/07/25 09:50:00;;;;;;;;;7.50;7.25;;;;;;;;5057981;28;46814;-79
2021/07/25 09:52:26;;;;;;;;;5.75;5.00;;;;;;;;5057933;28;46982;-79
2021/07/25 09:54:53;;;;;;;;;8.00;6.00;;;;;;;;5057804;28;47805;-79
2021/07/25 09:57:18;;;;;;;;;5.50;5.50;;;;;;;;5039415;28;46976;-79
2021/07/25 09:59:43;;;;;;;;;10.50;9.00;;;;;;;;5057619;28;46947;-79
2021/07/25 10:02:28;;;;;;;;;6.50;6.50;;;;;;;;5057709;28;46975;-78
2021/07/25 10:05:06;;;;;;;;;5.75;4.25;;;;;;;;5057387;28;47888;-79
2021/07/25 10:07:32;;;;;;;;;5.75;5.00;;;;;;;;5064639;28;47029;-79
2021/07/25 10:10:01;;;;;;;;;8.75;8.75;;;;;;;;5059376;28;46955;-79
2021/07/25 10:12:33;;;;;;;;;7.00;6.75;;;;;;;;5078205;28;47266;-78
2021/07/25 10:14:59;;;;;;;;;7.00;7.00;;;;;;;;5080933;28;47003;-78
2021/07/25 10:17:25;;;;;;;;;8.25;7.00;;;;;;;;5081549;28;46751;-78
2021/07/25 10:19:52;;;;;;;;;6.00;6.00;;;;;;;;5081415;28;47002;-78
2021/07/25 10:22:19;;;;;;;;;6.00;5.00;;;;;;;;5073238;28;46982;-78
2021/07/25 10:24:45;;;;;;;;;4.50;4.50;;;;;;;;5060971;28;47008;-78
2021/07/25 10:27:14;;;;;;;;;8.75;7.50;;;;;;;;5061040;28;46861;-78
2021/07/25 10:29:40;;;;;;;;;7.00;5.75;;;;;;;;5060797;28;46957;-78
2021/07/25 10:32:09;;;;;;;;;8.00;6.50;;;;;;;;5061537;28;46883;-78
2021/07/25 10:34:37;;;;;;;;;6.25;5.00;;;;;;;;5074285;27;47226;-78
2021/07/25 10:37:03;;;;;;;;;8.50;8.50;;;;;;;;5061224;28;46917;-78
2021/07/25 10:39:29;;;;;;;;;5.75;5.00;;;;;;;;5060874;28;47096;-78
2021/07/25 10:41:58;;;;;;;;;6.75;5.00;;;;;;;;5061338;28;47036;-78
2021/07/25 10:44:23;;;;;;;;;7.00;6.00;;;;;;;;5042342;28;48529;-78
2021/07/25 10:46:49;;;;;;;;;9.00;7.50;;;;;;;;5060499;28;47048;-78
2021/07/25 10:49:15;;;;;;;;;6.00;5.00;;;;;;;;5060653;28;46873;-78
2021/07/25 10:51:59;;;;;;;;;9.50;8.50;;;;;;;;5061060;28;46886;-78
2021/07/25 10:54:25;;;;;;;;;6.75;5.75;;;;;;;;5060564;28;47424;-78
2021/07/25 10:57:07;;;;;;;;;7.50;7.50;;;;;;;;5042555;28;47555;-78
2021/07/25 10:59:39;;;;;;;;;11.00;10.75;;;;;;;;5068918;28;46924;-77
2021/07/25 11:02:04;;;;;;;;;8.00;8.00;;;;;;;;5081083;28;46866;-78
2021/07/25 11:04:59;;;;;;;;;6.75;6.75;;;;;;;;5080915;28;47039;-77
2021/07/25 11:07:24;;;;;;;;;7.00;5.75;;;;;;;;5051464;28;46779;-78
2021/07/25 11:10:12;;;;;;;;;7.00;7.00;;;;;;;;5060638;28;46968;-77
2021/07/25 11:12:55;;;;;;;;;9.25;8.00;;;;;;;;5051706;28;46932;-77
2021/07/25 11:15:40;;;;;;;;;7.50;7.50;;;;;;;;5080307;28;47190;-77
2021/07/25 11:18:06;;;;;;;;;7.00;7.00;;;;;;;;5080186;28;46917;-77
2021/07/25 11:20:35;;;;;;;;;7.25;6.50;;;;;;;;5080910;28;46952;-77
2021/07/25 11:23:01;;;;;;;;;10.00;5.75;;;;;;;;5065468;28;47348;-77
2021/07/25 11:25:31;;;;;;;;;9.75;8.00;;;;;;;;5059541;28;47653;-78
2021/07/25 11:27:56;;;;;;;;;9.25;9.00;;;;;;;;5059996;28;46959;-77
2021/07/25 11:30:40;;;;;;;;;9.00;6.25;;;;;;;;5060179;28;46866;-77
2021/07/25 11:33:05;;;;;;;;;8.25;7.25;;;;;;;;5064622;27;47344;-77
2021/07/25 11:35:31;;;;;;;;;8.00;5.50;;;;;;;;5069232;28;46988;-77
2021/07/25 11:37:57;;;;;;;;;7.25;6.00;;;;;;;;5041833;28;46977;-77
2021/07/25 11:40:25;;;;;;;;;10.00;7.00;;;;;;;;5060240;28;46906;-77
2021/07/25 11:42:51;;;;;;;;;9.00;7.25;;;;;;;;5059878;28;47043;-78
2021/07/25 11:45:16;;;;;;;;;10.00;9.00;;;;;;;;5041360;28;48319;-77
2021/07/25 11:47:42;;;;;;;;;7.75;7.25;;;;;;;;5059810;28;46763;-77
2021/07/25 11:50:07;;;;;;;;;7.00;5.00;;;;;;;;5059926;28;46914;-77
2021/07/25 11:52:32;;;;;;;;;9.75;9.00;;;;;;;;5060009;28;46740;-77
2021/07/25 11:54:58;;;;;;;;;8.50;7.75;;;;;;;;5059765;28;47850;-77
2021/07/25 11:57:24;;;;;;;;;7.00;7.00;;;;;;;;5059499;28;46851;-77
2021/07/25 11:59:56;;;;;;;;;15.00;12.00;;;;;;;;5059643;28;46941;-79
2021/07/25 12:02:26;;;;;;;;;11.50;9.00;;;;;;;;5059739;28;47190;-81
2021/07/25 12:04:52;;;;;;;;;8.50;6.50;;;;;;;;5059788;28;47916;-82
2021/07/25 12:07:19;;;;;;;;;8.50;7.75;;;;;;;;5059329;28;46901;-82
2021/07/25 12:09:49;;;;;;;;;9.75;8.00;;;;;;;;5059673;28;46943;-82
2021/07/25 12:12:22;;;;;;;;;7.75;6.00;;;;;;;;5059155;28;47314;-82
2021/07/25 12:14:55;;;;;;;;;11.75;10.00;;;;;;;;5058855;28;46862;-82
2021/07/25 12:17:38;;;;;;;;;10.75;10.75;;;;;;;;5059262;28;47045;-81
2021/07/25 12:20:11;;;;;;;;;12.75;12.75;;;;;;;;5059188;28;47232;-81
2021/07/25 12:22:46;;;;;;;;;11.00;10.50;;;;;;;;5067038;28;46896;-81
2021/07/25 12:25:12;;;;;;;;;10.50;8.75;;;;;;;;5058803;28;47104;-81
2021/07/25 12:27:37;;;;;;;;;11.00;9.25;;;;;;;;5040723;28;47772;-81
2021/07/25 12:30:07;;;;;;;;;8.00;8.00;;;;;;;;5058693;28;47166;-80
2021/07/25 12:32:33;;;;;;;;;9.75;9.75;;;;;;;;5059229;28;46802;-80
2021/07/25 12:35:08;;;;;;;;;8.25;7.50;;;;;;;;5070828;28;48145;-80
2021/07/25 12:37:33;;;;;;;;;5.75;5.00;;;;;;;;5057727;28;47048;-80
2021/07/25 12:40:06;;;;;;;;;9.00;7.00;;;;;;;;5059095;28;46800;-80
2021/07/25 12:42:38;;;;;;;;;6.00;6.00;;;;;;;;5058860;28;47151;-80
2021/07/25 12:45:22;;;;;;;;;6.00;4.25;;;;;;;;5058399;28;47157;-80
2021/07/25 12:47:47;;;;;;;;;6.00;6.00;;;;;;;;5040404;28;47016;-80
2021/07/25 12:50:12;;;;;;;;;7.00;6.00;;;;;;;;5058922;28;46867;-79
2021/07/25 12:52:38;;;;;;;;;4.00;4.00;;;;;;;;5058802;28;47252;-79
2021/07/25 12:55:03;;;;;;;;;6.25;5.75;;;;;;;;5058914;28;47902;-79
2021/07/25 12:57:29;;;;;;;;;9.00;6.25;;;;;;;;5040132;28;47180;-79
2021/07/25 12:59:54;;;;;;;;;4.50;3.00;;;;;;;;5040292;28;46929;-79
2021/07/25 13:05:03;;;;;;;;;6.75;4.50;;;;;;;;5058425;28;47408;-79
2021/07/25 13:07:29;;;;;;;;;5.00;5.00;;;;;;;;5058817;28;47784;-79
2021/07/25 13:09:54;;;;;;;;;4.00;4.00;;;;;;;;5058727;28;46867;-79
2021/07/25 13:12:19;;;;;;;;;6.25;6.00;;;;;;;;5058511;28;46910;-78
2021/07/25 13:14:45;;;;;;;;;6.00;6.00;;;;;;;;5057917;28;48041;-79
2021/07/25 13:17:10;;;;;;;;;5.00;4.00;;;;;;;;5058546;28;46977;-79
2021/07/25 13:19:37;;;;;;;;;4.00;4.00;;;;;;;;5058336;28;46732;-79
2021/07/25 13:22:03;;;;;;;;;5.00;4.75;;;;;;;;5065537;28;46993;-79
2021/07/25 13:24:28;;;;;;;;;7.00;6.75;;;;;;;;5058130;28;47809;-78
2021/07/25 13:26:54;;;;;;;;;2.75;2.75;;;;;;;;5058617;28;46911;-79
2021/07/25 13:29:19;;;;;;;;;5.25;4.50;;;;;;;;5057965;28;46891;-79
2021/07/25 13:31:45;;;;;;;;;4.00;4.00;;;;;;;;5058656;28;46826;-79
2021/07/25 13:34:10;;;;;;;;;4.75;4.75;;;;;;;;5071622;27;46931;-79
2021/07/25 13:36:35;;;;;;;;;5.50;5.50;;;;;;;;5058161;28;46784;-78
2021/07/25 13:39:01;;;;;;;;;4.50;4.50;;;;;;;;5058551;28;47603;-79
2021/07/25 13:41:27;;;;;;;;;4.00;3.75;;;;;;;;5040305;28;47261;-78
2021/07/25 13:43:52;;;;;;;;;4.25;4.25;;;;;;;;5058064;28;46903;-79
2021/07/25 13:46:20;;;;;;;;;8.00;8.00;;;;;;;;5057810;28;46924;-78
2021/07/25 13:48:46;;;;;;;;;5.75;4.25;;;;;;;;5057618;28;46881;-78
2021/07/25 13:51:12;;;;;;;;;7.75;5.00;;;;;;;;5039949;28;47313;-79
2021/07/25 13:53:38;;;;;;;;;4.75;4.75;;;;;;;;5057890;28;46774;-78
2021/07/25 13:56:04;;;;;;;;;6.25;5.00;;;;;;;;5058128;28;46774;-78
2021/07/25 13:58:29;;;;;;;;;3.50;3.50;;;;;;;;5057866;28;46826;-78
2021/07/25 14:00:54;;;;;;;;;5.25;4.00;;;;;;;;5057888;28;46871;-78
2021/07/25 14:03:20;;;;;;;;;5.75;5.75;;;;;;;;5057861;28;47937;-79
2021/07/25 14:05:45;;;;;;;;;5.00;5.00;;;;;;;;5057702;28;46842;-79
2021/07/25 14:08:11;;;;;;;;;4.00;4.00;;;;;;;;5058048;28;46817;-79
2021/07/25 14:10:36;;;;;;;;;9.00;6.75;;;;;;;;5057911;28;47115;-78
2021/07/25 14:13:02;;;;;;;;;5.75;5.00;;;;;;;;5057452;28;46992;-79
2021/07/25 14:15:28;;;;;;;;;3.50;3.50;;;;;;;;5057625;28;46930;-79
2021/07/25 14:17:53;;;;;;;;;5.25;5.25;;;;;;;;5039669;28;46917;-79
2021/07/25 14:20:19;;;;;;;;;8.00;3.75;;;;;;;;5057790;28;46917;-79
2021/07/25 14:22:45;;;;;;;;;7.00;7.00;;;;;;;;5064674;28;47060;-79
2021/07/25 14:25:10;;;;;;;;;3.75;3.25;;;;;;;;5057492;28;46996;-79
2021/07/25 14:27:36;;;;;;;;;8.75;6.00;;;;;;;;5039568;28;46878;-79
2021/07/25 14:30:03;;;;;;;;;7.00;7.00;;;;;;;;5057508;28;46719;-79
2021/07/25 14:32:28;;;;;;;;;3.25;3.25;;;;;;;;5057486;28;47794;-80
2021/07/25 14:34:53;;;;;;;;;4.00;4.00;;;;;;;;5069442;28;47807;-79
2021/07/25 14:37:18;;;;;;;;;4.75;4.00;;;;;;;;5057622;28;46862;-79
2021/07/25 14:39:44;;;;;;;;;4.00;4.00;;;;;;;;5057292;28;46786;-79
2021/07/25 14:42:09;;;;;;;;;5.00;4.00;;;;;;;;5057009;28;47533;-79
2021/07/25 14:44:34;;;;;;;;;4.50;3.50;;;;;;;;5056902;28;46778;-78
2021/07/25 14:47:00;;;;;;;;;4.00;4.00;;;;;;;;5057117;28;46973;-78